Terminal Aerodrome Forecast
Issued by NWS

Home | Current Version | Previous Version | Text Only | Print | Product List | Glossary On
Versions: 1 2 3 4 5 6 7 8 9 10 11 12 13 14 15 16 17 18 19 20 21
000
FTUS42 KMLB 271121
TAFLEE
TAF
KLEE 271121Z 2712/2812 29010KT P6SM -RA FEW022 SCT080 OVC100
      TEMPO 2712/2713 4SM -RA BR BKN022
     FM271500 32010KT P6SM VCSH SCT025 BKN050
     FM280100 VRB04KT P6SM VCSH SCT025 SCT050 BKN100=

USA.gov is the U.S. government's official web portal to all federal, state and local government web resources and services.